createdAt,value
2023-03-31T00:00:24.044Z,98827.66
2023-03-31T00:02:58.777Z,98816.22
2023-03-31T00:05:33.412Z,98803.81
2023-03-31T00:08:07.385Z,98795.66
2023-03-31T00:10:46.729Z,98783.28
2023-03-31T00:13:19.268Z,98779.88
2023-03-31T00:15:57.499Z,98769.16
2023-03-31T00:18:31.076Z,98764.81
2023-03-31T00:21:14.723Z,98764.81
2023-03-31T00:23:48.329Z,98747.19
2023-03-31T00:26:23.169Z,98743.53
2023-03-31T00:28:56.684Z,98741.84
2023-03-31T00:31:29.911Z,98739.28
2023-03-31T00:34:02.643Z,98730.31
2023-03-31T00:36:36.966Z,98733.09
2023-03-31T00:39:09.858Z,98714.50
2023-03-31T00:41:42.762Z,98710.00
2023-03-31T00:44:23.192Z,98706.72
2023-03-31T00:47:01.559Z,98702.09
2023-03-31T00:49:45.318Z,98686.19
2023-03-31T00:52:37.610Z,98673.09
2023-03-31T00:55:15.442Z,98672.94
2023-03-31T00:57:48.732Z,98657.88
2023-03-31T01:00:24.078Z,98647.19
2023-03-31T01:03:02.361Z,98629.44
2023-03-31T01:05:42.881Z,98619.00
2023-03-31T01:08:18.143Z,98610.00
2023-03-31T01:10:57.272Z,98609.31
2023-03-31T01:13:31.840Z,98589.72
2023-03-31T01:16:05.782Z,98577.22
2023-03-31T01:18:40.062Z,98571.00
2023-03-31T01:21:45.595Z,98558.63
2023-03-31T01:24:52.043Z,98548.06
2023-03-31T01:27:43.947Z,98527.66
2023-03-31T01:30:40.872Z,98524.97
2023-03-31T01:33:19.586Z,98511.72
2023-03-31T01:36:31.963Z,98498.50
2023-03-31T01:39:08.785Z,98488.94
2023-03-31T01:41:53.196Z,98473.16
2023-03-31T01:44:33.856Z,98482.72
2023-03-31T01:47:22.818Z,98473.72
2023-03-31T01:50:08.461Z,98465.84
2023-03-31T01:52:56.035Z,98459.66
2023-03-31T01:55:39.364Z,98442.91
2023-03-31T01:58:18.239Z,98439.38
2023-03-31T02:01:01.964Z,98438.53
2023-03-31T02:03:41.920Z,98418.97
2023-03-31T02:06:24.599Z,98415.31
2023-03-31T02:09:04.714Z,98402.06
2023-03-31T02:11:38.990Z,98389.13
2023-03-31T02:14:18.783Z,98387.03
2023-03-31T02:16:58.624Z,98377.31
2023-03-31T02:19:40.261Z,98368.47
2023-03-31T02:22:13.893Z,98362.41
2023-03-31T02:24:47.544Z,98349.88
2023-03-31T02:27:28.011Z,98343.72
2023-03-31T02:30:00.957Z,98339.31
2023-03-31T02:32:39.529Z,98333.16
2023-03-31T02:35:21.809Z,98324.25
2023-03-31T02:37:54.196Z,98313.69
2023-03-31T02:40:27.862Z,98304.97
2023-03-31T02:43:00.790Z,98296.97
2023-03-31T02:45:50.917Z,98282.63
2023-03-31T02:48:30.502Z,98277.56
2023-03-31T02:51:09.060Z,98275.59
2023-03-31T02:54:13.236Z,98258.97
2023-03-31T02:57:28.804Z,98257.03
2023-03-31T03:00:10.909Z,98243.09
2023-03-31T03:02:55.813Z,98236.78
2023-03-31T03:05:49.799Z,98225.22
2023-03-31T03:09:42.368Z,98209.31
2023-03-31T03:12:32.652Z,98212.00
2023-03-31T03:15:14.401Z,98197.94
2023-03-31T03:17:49.318Z,98194.41
2023-03-31T03:20:22.930Z,98187.25
2023-03-31T03:22:55.526Z,98178.53
2023-03-31T03:25:30.359Z,98171.47
2023-03-31T03:28:02.778Z,98159.00
2023-03-31T03:30:35.218Z,98157.16
2023-03-31T03:33:07.603Z,98140.44
2023-03-31T03:35:39.941Z,98133.25
2023-03-31T03:38:12.383Z,98130.72
2023-03-31T03:40:44.692Z,98126.19
2023-03-31T03:43:17.102Z,98123.66
2023-03-31T03:45:52.666Z,98105.97
2023-03-31T03:48:25.244Z,98100.63
2023-03-31T03:51:02.701Z,98104.97
2023-03-31T03:53:35.120Z,98089.94
2023-03-31T03:56:07.778Z,98095.28
2023-03-31T03:58:40.451Z,98088.38
2023-03-31T04:01:12.986Z,98074.19
2023-03-31T04:03:45.762Z,98069.94
2023-03-31T04:06:18.194Z,98068.84
2023-03-31T04:08:50.561Z,98063.63
2023-03-31T04:11:23.740Z,98060.97
2023-03-31T04:13:56.239Z,98054.78
2023-03-31T04:16:28.662Z,98041.44
2023-03-31T04:19:03.910Z,98030.00
2023-03-31T04:21:58.827Z,98028.34
2023-03-31T04:24:33.159Z,98016.66
2023-03-31T04:27:07.538Z,98005.28
2023-03-31T04:29:40.742Z,98010.47
2023-03-31T04:32:15.054Z,97993.91
2023-03-31T04:34:50.633Z,97997.25
2023-03-31T04:37:28.342Z,97995.75
2023-03-31T04:40:08.215Z,97990.41
2023-03-31T04:42:40.631Z,97986.84
2023-03-31T04:45:13.491Z,97985.06
2023-03-31T04:47:45.901Z,97977.19
2023-03-31T04:50:18.338Z,97969.31
2023-03-31T04:52:50.843Z,97970.13
2023-03-31T04:55:23.292Z,97967.59
2023-03-31T04:57:56.121Z,97961.44
2023-03-31T05:00:29.077Z,97941.03
2023-03-31T05:03:01.967Z,97942.00
2023-03-31T05:05:34.597Z,97934.00
2023-03-31T05:08:07.209Z,97932.31
2023-03-31T05:10:39.640Z,97927.00
2023-03-31T05:13:12.144Z,97927.97
2023-03-31T05:15:45.419Z,97924.31
2023-03-31T05:18:17.927Z,97915.63
2023-03-31T05:20:50.399Z,97911.25
2023-03-31T05:23:22.971Z,97908.56
2023-03-31T05:25:55.782Z,97902.50
2023-03-31T05:28:28.631Z,97891.81
2023-03-31T05:31:03.703Z,97898.97
2023-03-31T05:33:40.447Z,97884.09
2023-03-31T05:36:15.837Z,97882.13
2023-03-31T05:38:48.376Z,97878.75
2023-03-31T05:41:21.285Z,97888.59
2023-03-31T05:43:53.723Z,97880.41
2023-03-31T05:46:26.970Z,97878.06
2023-03-31T05:48:59.176Z,97863.72
2023-03-31T05:51:31.433Z,97865.53
2023-03-31T05:54:03.937Z,97862.03
2023-03-31T05:56:36.345Z,97856.56
2023-03-31T05:59:08.802Z,97852.88
2023-03-31T06:01:41.503Z,97845.72
2023-03-31T06:04:14.173Z,97847.25
2023-03-31T06:06:50.409Z,97844.50
2023-03-31T06:09:22.943Z,97842.50
2023-03-31T06:11:55.243Z,97841.41
2023-03-31T06:14:28.443Z,97835.91
2023-03-31T06:17:00.705Z,97833.94
2023-03-31T06:19:32.938Z,97842.63
2023-03-31T06:22:05.406Z,97827.31
2023-03-31T06:24:37.759Z,97831.53
2023-03-31T06:27:10.709Z,97831.38
2023-03-31T06:29:42.977Z,97832.94
2023-03-31T06:32:15.286Z,97824.75
2023-03-31T06:34:47.742Z,97828.16
2023-03-31T06:37:20.126Z,97820.81
2023-03-31T06:39:52.542Z,97810.00
2023-03-31T06:42:24.873Z,97825.88
2023-03-31T06:44:57.210Z,97819.41
2023-03-31T06:47:29.569Z,97818.28
2023-03-31T06:50:02.171Z,97818.28
2023-03-31T06:52:35.467Z,97818.00
2023-03-31T06:55:08.878Z,97820.53
2023-03-31T06:57:41.433Z,97805.31
2023-03-31T07:00:14.459Z,97812.38
2023-03-31T07:02:46.890Z,97809.41
2023-03-31T07:05:20.153Z,97801.38
2023-03-31T07:07:56.399Z,97804.88
2023-03-31T07:10:30.326Z,97806.41
2023-03-31T07:13:04.472Z,97803.75
2023-03-31T07:15:37.929Z,97804.47
2023-03-31T07:18:10.416Z,97803.59
2023-03-31T07:20:43.858Z,97805.16
2023-03-31T07:23:16.645Z,97818.50
2023-03-31T07:25:49.532Z,97810.34
2023-03-31T07:28:22.114Z,97807.53
2023-03-31T07:30:54.515Z,97803.84
2023-03-31T07:33:26.808Z,97809.19
2023-03-31T07:36:10.835Z,97805.56
2023-03-31T07:38:47.050Z,97801.91
2023-03-31T07:41:21.323Z,97797.38
2023-03-31T07:43:53.708Z,97798.22
2023-03-31T07:46:28.072Z,97793.00
2023-03-31T07:49:03.283Z,97792.88
2023-03-31T07:51:36.065Z,97791.22
2023-03-31T07:54:08.465Z,97792.88
2023-03-31T07:56:41.397Z,97793.75
2023-03-31T07:59:13.910Z,97784.16
2023-03-31T08:01:46.821Z,97798.22
2023-03-31T08:04:19.392Z,97791.22
2023-03-31T08:06:51.851Z,97789.50
2023-03-31T08:09:24.290Z,97788.69
2023-03-31T08:11:56.866Z,97794.03
2023-03-31T08:14:40.003Z,97787.13
2023-03-31T08:17:13.810Z,97791.50
2023-03-31T08:19:46.196Z,97788.13
2023-03-31T08:22:20.921Z,97775.75
2023-03-31T08:24:53.367Z,97771.25
2023-03-31T08:27:26.252Z,97781.09
2023-03-31T08:29:58.649Z,97782.06
2023-03-31T08:32:32.405Z,97773.22
2023-03-31T08:35:05.448Z,97767.06
2023-03-31T08:37:38.877Z,97763.50
2023-03-31T08:40:20.080Z,97768.03
2023-03-31T08:43:16.643Z,97769.72
2023-03-31T08:45:49.911Z,97768.16
2023-03-31T08:48:26.147Z,97756.66
2023-03-31T08:51:24.430Z,97765.66
2023-03-31T08:53:59.803Z,97759.63
2023-03-31T08:56:39.213Z,97751.59
2023-03-31T08:59:27.433Z,97758.63
2023-03-31T09:02:31.067Z,97751.44
2023-03-31T09:05:43.220Z,97748.25
2023-03-31T09:08:31.661Z,97749.91
2023-03-31T09:11:10.870Z,97750.91
2023-03-31T09:14:17.503Z,97751.88
2023-03-31T09:17:02.551Z,97746.53
2023-03-31T09:19:56.289Z,97751.06
2023-03-31T09:22:35.914Z,97744.84
2023-03-31T09:25:16.379Z,97733.34
2023-03-31T09:27:51.131Z,97744.84
2023-03-31T09:30:29.720Z,97736.16
2023-03-31T09:33:14.825Z,97742.34
2023-03-31T09:35:47.874Z,97729.13
2023-03-31T09:38:22.912Z,97729.13
2023-03-31T09:41:00.881Z,97722.94
2023-03-31T09:43:38.506Z,97716.91
2023-03-31T09:46:22.979Z,97716.75
2023-03-31T09:49:02.114Z,97713.41
2023-03-31T09:51:37.538Z,97708.88
2023-03-31T09:54:16.154Z,97712.41
2023-03-31T09:56:55.392Z,97714.22
2023-03-31T09:59:34.309Z,97713.69
2023-03-31T10:02:24.256Z,97711.72
2023-03-31T10:04:56.772Z,97710.88
2023-03-31T10:07:29.533Z,97716.38
2023-03-31T10:10:02.501Z,97711.72
2023-03-31T10:12:35.312Z,97710.88
2023-03-31T10:15:25.736Z,97709.03
2023-03-31T10:17:59.577Z,97698.78
2023-03-31T10:20:37.110Z,97700.47
2023-03-31T10:23:24.669Z,97696.84
2023-03-31T10:25:57.372Z,97700.34
2023-03-31T10:28:34.295Z,97702.31
2023-03-31T10:31:08.714Z,97702.19
2023-03-31T10:33:50.220Z,97703.97
2023-03-31T10:36:27.385Z,97703.28
2023-03-31T10:38:59.929Z,97716.66
2023-03-31T10:41:33.359Z,97706.13
2023-03-31T10:44:05.985Z,97717.63
2023-03-31T10:46:49.693Z,97720.31
2023-03-31T10:49:22.279Z,97721.31
2023-03-31T10:51:57.691Z,97725.78
2023-03-31T10:54:30.299Z,97724.97
2023-03-31T10:57:05.733Z,97728.59
2023-03-31T10:59:52.604Z,97737.63
2023-03-31T11:02:59.536Z,97742.97
2023-03-31T11:05:51.880Z,97747.47
2023-03-31T11:08:33.257Z,97744.22
2023-03-31T11:11:41.637Z,97761.94
2023-03-31T11:14:21.887Z,97758.44
2023-03-31T11:17:21.564Z,97757.03
2023-03-31T11:20:15.478Z,97770.94
2023-03-31T11:22:56.364Z,97773.59
2023-03-31T11:25:29.761Z,97771.66
2023-03-31T11:28:26.238Z,97774.19
2023-03-31T11:31:09.011Z,97782.03
2023-03-31T11:34:04.525Z,97784.56
2023-03-31T11:36:44.655Z,97789.75
2023-03-31T11:39:19.907Z,97788.78
2023-03-31T11:42:00.574Z,97800.00
2023-03-31T11:44:43.004Z,97799.19
2023-03-31T11:47:22.487Z,97818.72
2023-03-31T11:49:59.273Z,97811.53
2023-03-31T11:52:39.835Z,97811.53
2023-03-31T11:55:15.531Z,97820.53
2023-03-31T11:57:57.117Z,97821.09
2023-03-31T12:00:34.875Z,97833.47
2023-03-31T12:03:33.489Z,97833.34
2023-03-31T12:06:17.474Z,97839.66
2023-03-31T12:09:05.669Z,97841.63
2023-03-31T12:12:10.570Z,97845.28
2023-03-31T12:14:54.575Z,97857.94
2023-03-31T12:17:29.264Z,97861.88
2023-03-31T12:20:10.648Z,97871.72
2023-03-31T12:22:48.943Z,97866.66
2023-03-31T12:25:28.338Z,97872.84
2023-03-31T12:28:03.281Z,97887.19
2023-03-31T12:30:42.341Z,97886.38
2023-03-31T12:33:25.976Z,97891.13
2023-03-31T12:36:04.693Z,97890.00
2023-03-31T12:38:40.281Z,97893.66
2023-03-31T12:41:38.748Z,97901.53
2023-03-31T12:44:34.348Z,97906.88
2023-03-31T12:47:37.699Z,97906.19
2023-03-31T12:50:37.095Z,97909.81
2023-03-31T12:53:35.765Z,97909.97
2023-03-31T12:56:08.704Z,97916.31
2023-03-31T12:58:43.766Z,97905.75
2023-03-31T13:01:20.369Z,97917.41
2023-03-31T13:04:20.401Z,97927.13
2023-03-31T13:06:59.864Z,97915.03
2023-03-31T13:09:41.541Z,97932.75
2023-03-31T13:12:19.701Z,97930.22
2023-03-31T13:14:54.623Z,97934.72
2023-03-31T13:17:35.831Z,97931.31
2023-03-31T13:20:26.496Z,97931.63
2023-03-31T13:23:20.049Z,97942.00
2023-03-31T13:25:56.377Z,97946.50
2023-03-31T13:28:33.161Z,97958.03
2023-03-31T13:31:09.291Z,97956.38
2023-03-31T13:33:57.517Z,97964.50
2023-03-31T13:36:34.119Z,97972.53
2023-03-31T13:39:36.108Z,97979.69
2023-03-31T13:42:27.322Z,97979.94
2023-03-31T13:45:19.922Z,97979.94
2023-03-31T13:48:19.150Z,97994.25
2023-03-31T13:51:11.443Z,98003.25
2023-03-31T13:54:05.131Z,98007.75
2023-03-31T13:57:15.009Z,98016.75
2023-03-31T14:00:24.013Z,98018.69
2023-03-31T14:03:18.614Z,98033.06
2023-03-31T14:06:02.163Z,98036.56
2023-03-31T14:08:55.711Z,98045.53
2023-03-31T14:11:31.428Z,98039.50
2023-03-31T14:14:18.316Z,98046.53
2023-03-31T14:17:01.589Z,98050.88
2023-03-31T14:20:11.040Z,98059.47
2023-03-31T14:22:56.361Z,98061.47
2023-03-31T14:25:57.233Z,98070.19
2023-03-31T14:28:48.241Z,98085.25
2023-03-31T14:31:38.757Z,98086.22
2023-03-31T14:34:17.037Z,98084.53
2023-03-31T14:37:00.476Z,98089.88
2023-03-31T14:39:37.818Z,98105.06
2023-03-31T14:42:23.382Z,98106.19
2023-03-31T14:45:03.670Z,98101.78
2023-03-31T14:47:36.127Z,98110.06
2023-03-31T14:50:19.103Z,98111.88
2023-03-31T14:52:52.703Z,98110.34
2023-03-31T14:55:39.311Z,98120.91
2023-03-31T14:58:31.901Z,98120.03
2023-03-31T15:01:07.123Z,98124.66
2023-03-31T15:03:42.317Z,98133.66
2023-03-31T15:06:16.583Z,98128.31
2023-03-31T15:08:49.862Z,98132.09
2023-03-31T15:11:22.463Z,98140.13
2023-03-31T15:16:45.190Z,98146.28
2023-03-31T15:19:21.306Z,98142.91
2023-03-31T15:22:06.136Z,98149.94
2023-03-31T15:24:38.601Z,98144.59
2023-03-31T15:27:34.019Z,98160.34
2023-03-31T15:30:19.096Z,98165.28
2023-03-31T15:32:53.421Z,98168.31
2023-03-31T15:35:33.298Z,98177.63
2023-03-31T15:38:06.664Z,98170.03
2023-03-31T15:40:43.049Z,98175.94
2023-03-31T15:45:55.598Z,98193.69
2023-03-31T15:48:39.171Z,98201.81
2023-03-31T15:51:18.781Z,98201.22
2023-03-31T15:53:53.849Z,98212.22
2023-03-31T15:56:34.934Z,98216.09
2023-03-31T15:59:37.829Z,98225.38
2023-03-31T16:02:47.443Z,98230.94
2023-03-31T16:06:02.410Z,98229.50
2023-03-31T16:08:44.746Z,98232.44
2023-03-31T16:11:25.895Z,98240.72
2023-03-31T16:14:01.791Z,98246.47
2023-03-31T16:16:34.889Z,98249.97
2023-03-31T16:19:10.452Z,98262.63
2023-03-31T16:21:47.561Z,98269.03
2023-03-31T16:24:31.010Z,98270.88
2023-03-31T16:27:06.894Z,98279.16
2023-03-31T16:29:40.067Z,98275.78
2023-03-31T16:32:21.754Z,98280.25
2023-03-31T16:35:01.324Z,98278.81
2023-03-31T16:37:33.639Z,98291.19
2023-03-31T16:40:07.139Z,98281.63
2023-03-31T16:42:39.436Z,98293.25
2023-03-31T16:45:14.996Z,98293.25
2023-03-31T16:47:47.565Z,98297.88
2023-03-31T16:50:19.994Z,98299.72
2023-03-31T16:52:52.485Z,98302.38
2023-03-31T16:55:25.920Z,98317.41
2023-03-31T16:58:02.891Z,98319.25
2023-03-31T17:00:36.730Z,98325.53
2023-03-31T17:03:10.611Z,98338.03
2023-03-31T17:05:48.189Z,98332.84
2023-03-31T17:08:22.477Z,98333.81
2023-03-31T17:11:07.243Z,98340.84
2023-03-31T17:13:41.804Z,98340.13
2023-03-31T17:16:22.001Z,98367.78
2023-03-31T17:19:01.741Z,98360.75
2023-03-31T17:21:34.082Z,98365.22
2023-03-31T17:24:09.163Z,98372.41
2023-03-31T17:26:41.604Z,98372.53
2023-03-31T17:29:15.515Z,98375.19
2023-03-31T17:31:49.411Z,98391.34
2023-03-31T17:34:22.179Z,98393.28
2023-03-31T17:36:55.703Z,98393.28
2023-03-31T17:39:28.176Z,98407.59
2023-03-31T17:42:00.977Z,98412.09
2023-03-31T17:44:33.686Z,98413.19
2023-03-31T17:47:06.282Z,98416.00
2023-03-31T17:49:38.813Z,98420.47
2023-03-31T17:52:11.762Z,98440.13
2023-03-31T17:54:44.838Z,98427.75
2023-03-31T17:57:17.344Z,98431.38
2023-03-31T17:59:49.794Z,98441.22
2023-03-31T18:02:24.663Z,98448.38
2023-03-31T18:04:57.267Z,98455.63
2023-03-31T18:07:30.844Z,98456.63
2023-03-31T18:10:08.207Z,98466.47
2023-03-31T18:12:41.249Z,98466.59
2023-03-31T18:15:13.547Z,98472.88
2023-03-31T18:17:45.908Z,98478.22
2023-03-31T18:20:19.495Z,98490.84
2023-03-31T18:22:51.881Z,98483.56
2023-03-31T18:25:24.666Z,98485.50
2023-03-31T18:27:57.355Z,98483.56
2023-03-31T18:30:29.860Z,98505.59
2023-03-31T18:33:02.501Z,98508.28
2023-03-31T18:35:35.984Z,98510.00
2023-03-31T18:38:09.797Z,98517.00
2023-03-31T18:40:49.202Z,98519.53
2023-03-31T18:43:24.880Z,98523.09
2023-03-31T18:45:58.857Z,98525.53
2023-03-31T18:48:32.045Z,98532.53
2023-03-31T18:51:04.877Z,98546.59
2023-03-31T18:53:37.611Z,98556.31
2023-03-31T18:56:10.392Z,98560.44
2023-03-31T18:58:44.439Z,98568.34
2023-03-31T19:01:18.658Z,98571.84
2023-03-31T19:03:51.508Z,98578.75
2023-03-31T19:06:24.330Z,98580.31
2023-03-31T19:08:57.139Z,98588.22
2023-03-31T19:11:29.787Z,98591.72
2023-03-31T19:14:02.261Z,98612.84
2023-03-31T19:16:41.663Z,98609.22
2023-03-31T19:19:14.181Z,98618.91
2023-03-31T19:21:47.262Z,98629.34
2023-03-31T19:24:20.070Z,98628.38
2023-03-31T19:26:52.903Z,98630.94
2023-03-31T19:29:27.649Z,98631.78
2023-03-31T19:32:00.628Z,98645.84
2023-03-31T19:34:33.904Z,98638.59
2023-03-31T19:37:06.801Z,98648.38
2023-03-31T19:39:39.077Z,98654.59
2023-03-31T19:42:11.575Z,98654.59
2023-03-31T19:44:45.188Z,98651.81
2023-03-31T19:47:18.112Z,98661.50
2023-03-31T19:49:50.583Z,98673.16
2023-03-31T19:52:23.154Z,98681.03
2023-03-31T19:54:55.606Z,98686.38
2023-03-31T19:57:28.235Z,98691.72
2023-03-31T20:00:02.115Z,98692.59
2023-03-31T20:02:37.654Z,98704.09
2023-03-31T20:05:11.330Z,98704.09
2023-03-31T20:07:43.655Z,98708.59
2023-03-31T20:10:16.408Z,98713.06
2023-03-31T20:12:51.705Z,98721.06
2023-03-31T20:15:24.149Z,98723.75
2023-03-31T20:17:57.090Z,98723.75
2023-03-31T20:20:29.556Z,98729.09
2023-03-31T20:23:03.531Z,98729.09
2023-03-31T20:25:37.840Z,98737.09
2023-03-31T20:28:10.378Z,98739.75
2023-03-31T20:30:42.795Z,98744.28
2023-03-31T20:33:16.766Z,98752.16
2023-03-31T20:35:58.474Z,98752.28
2023-03-31T20:38:31.019Z,98754.94
2023-03-31T20:41:03.614Z,98763.78
2023-03-31T20:43:36.908Z,98776.19
2023-03-31T20:46:10.184Z,98780.56
2023-03-31T20:48:48.738Z,98781.31
2023-03-31T20:51:42.723Z,98783.97
2023-03-31T20:54:15.675Z,98796.38
2023-03-31T20:56:49.848Z,98801.69
2023-03-31T20:59:23.212Z,98807.88
2023-03-31T21:01:55.367Z,98811.28
2023-03-31T21:04:27.902Z,98810.44
2023-03-31T21:07:00.512Z,98819.41
2023-03-31T21:09:33.103Z,98826.47
2023-03-31T21:12:06.431Z,98830.81
2023-03-31T21:14:38.988Z,98837.97
2023-03-31T21:17:11.311Z,98845.16
2023-03-31T21:19:43.607Z,98848.66
2023-03-31T21:22:15.962Z,98849.50
2023-03-31T21:24:48.320Z,98857.50
2023-03-31T21:27:20.743Z,98861.06
2023-03-31T21:29:53.221Z,98870.88
2023-03-31T21:32:29.590Z,98874.53
2023-03-31T21:35:01.983Z,98881.56
2023-03-31T21:37:34.760Z,98881.56
2023-03-31T21:40:07.964Z,98894.91
2023-03-31T21:42:40.301Z,98894.06
2023-03-31T21:45:13.310Z,98895.88
2023-03-31T21:47:45.756Z,98903.91
2023-03-31T21:50:18.313Z,98905.72
2023-03-31T21:52:50.754Z,98911.19
2023-03-31T21:55:23.264Z,98915.66
2023-03-31T21:57:55.593Z,98922.81
2023-03-31T22:00:28.344Z,98926.44
2023-03-31T22:05:36.173Z,98942.47
2023-03-31T22:08:08.517Z,98944.41
2023-03-31T22:10:41.224Z,98950.69
2023-03-31T22:13:13.640Z,98953.38
2023-03-31T22:15:46.114Z,98962.25
2023-03-31T22:18:19.080Z,98963.22
2023-03-31T22:20:51.561Z,98975.72
2023-03-31T22:23:24.360Z,98968.66
2023-03-31T22:25:56.945Z,98974.00
2023-03-31T22:28:29.217Z,98980.31
2023-03-31T22:31:01.733Z,98979.44
2023-03-31T22:33:34.107Z,98982.22
2023-03-31T22:36:07.387Z,98992.91
2023-03-31T22:38:39.714Z,98996.56
2023-03-31T22:41:12.253Z,99010.88
2023-03-31T22:43:45.997Z,99019.81
2023-03-31T22:46:18.868Z,99013.66
2023-03-31T22:48:51.224Z,99023.47
2023-03-31T22:51:23.678Z,99025.31
2023-03-31T22:53:56.624Z,99027.09
2023-03-31T22:56:29.127Z,99031.72
2023-03-31T22:59:02.380Z,99036.09
2023-03-31T23:01:34.663Z,99045.06
2023-03-31T23:04:07.112Z,99046.00
2023-03-31T23:06:39.499Z,99055.84
2023-03-31T23:09:11.881Z,99054.22
2023-03-31T23:11:47.492Z,99062.13
2023-03-31T23:14:20.037Z,99059.56
2023-03-31T23:16:52.777Z,99066.63
2023-03-31T23:19:25.215Z,99071.13
2023-03-31T23:21:58.597Z,99075.59
2023-03-31T23:24:31.001Z,99073.91
2023-03-31T23:27:03.336Z,99082.03
2023-03-31T23:29:36.251Z,99087.34
2023-03-31T23:32:08.642Z,99091.09
2023-03-31T23:34:41.959Z,99099.88
2023-03-31T23:37:14.663Z,99105.31
2023-03-31T23:39:46.937Z,99108.09
2023-03-31T23:42:20.896Z,99109.97
2023-03-31T23:44:53.298Z,99108.09
2023-03-31T23:47:27.021Z,99117.03
2023-03-31T23:49:59.671Z,99123.31
2023-03-31T23:52:35.507Z,99129.66
2023-03-31T23:55:08.578Z,99129.75
2023-03-31T23:57:41.420Z,99130.59
